Time;durP1;ratioP1;P1;durP2;ratioP2;P2;SDS_P1;SDS_P2;PMS_P1;PMS_P2;Temp;Humidity;BMP_temperature;BMP_pressure;BME280_temperature;BME280_humidity;BME280_pressure;Samples;Min_cycle;Max_cycle;Signal;HPM_P1;HPM_P2
2021/04/16 00:01:30;;;;;;;54.55;50.65;;;24.70;27.50;;;;;;5030764;28;20798;-64
2021/04/16 00:03:55;;;;;;;54.67;50.77;;;24.70;27.60;;;;;;5031234;28;20871;-64
2021/04/16 00:06:21;;;;;;;51.17;47.58;;;24.70;27.60;;;;;;5031072;28;20391;-64
2021/04/16 00:08:47;;;;;;;50.47;46.80;;;24.60;27.40;;;;;;5031198;28;20379;-64
2021/04/16 00:11:21;;;;;;;48.60;45.10;;;24.60;27.60;;;;;;5030593;28;20395;-65
2021/04/16 00:13:47;;;;;;;46.63;43.25;;;24.60;27.40;;;;;;5031005;28;20384;-63
2021/04/16 00:16:18;;;;;;;45.95;42.65;;;24.60;27.50;;;;;;5030912;28;20453;-64
2021/04/16 00:18:45;;;;;;;45.55;42.35;;;24.60;27.60;;;;;;5032319;28;20402;-64
2021/04/16 00:21:12;;;;;;;42.58;39.50;;;24.50;27.60;;;;;;5034362;28;20399;-65
2021/04/16 00:23:39;;;;;;;40.80;37.90;;;24.50;27.60;;;;;;5034827;28;20383;-64
2021/04/16 00:26:05;;;;;;;39.65;36.85;;;24.50;27.40;;;;;;5034756;28;20410;-64
2021/04/16 00:28:31;;;;;;;39.23;36.43;;;24.50;27.60;;;;;;5034720;28;20441;-64
2021/04/16 00:31:19;;;;;;;38.63;35.83;;;24.50;27.60;;;;;;5034649;28;20399;-64
2021/04/16 00:33:45;;;;;;;35.17;32.60;;;24.40;27.60;;;;;;5034603;28;20398;-63
2021/04/16 00:36:12;;;;;;;35.33;32.80;;;24.40;27.60;;;;;;5034553;28;20489;-63
2021/04/16 00:38:38;;;;;;;34.15;31.65;;;24.30;27.60;;;;;;5034433;28;20387;-63
2021/04/16 00:41:07;;;;;;;32.97;30.67;;;24.30;27.60;;;;;;5033876;28;20399;-61
2021/04/16 00:43:36;;;;;;;32.17;29.88;;;24.30;27.60;;;;;;5034174;28;20446;-64
2021/04/16 00:46:19;;;;;;;31.65;29.45;;;24.30;27.70;;;;;;5034110;28;20883;-63
2021/04/16 00:48:52;;;;;;;29.55;27.45;;;24.30;27.60;;;;;;5034388;28;20391;-64
2021/04/16 00:51:42;;;;;;;28.58;26.58;;;24.20;27.60;;;;;;5033796;28;20379;-64
2021/04/16 00:54:15;;;;;;;27.08;25.17;;;24.20;27.70;;;;;;5033955;28;20747;-63
2021/04/16 00:56:41;;;;;;;26.13;24.33;;;24.20;27.80;;;;;;5034349;28;20387;-64
2021/04/16 00:59:07;;;;;;;25.30;23.50;;;24.10;27.70;;;;;;5032691;28;20401;-64
2021/04/16 01:01:32;;;;;;;25.60;23.80;;;24.10;27.80;;;;;;5032912;28;20397;-64
2021/04/16 01:03:58;;;;;;;23.03;21.37;;;24.10;27.80;;;;;;5034210;28;20387;-64
2021/04/16 01:06:24;;;;;;;23.45;21.83;;;24.10;27.80;;;;;;5034154;28;20422;-63
2021/04/16 01:08:51;;;;;;;22.60;21.00;;;24.00;27.80;;;;;;5034029;28;20395;-64
2021/04/16 01:11:17;;;;;;;21.50;20.00;;;24.00;27.80;;;;;;5032952;28;20393;-62
2021/04/16 01:13:44;;;;;;;21.42;19.83;;;24.00;27.70;;;;;;5032457;28;20752;-63
2021/04/16 01:16:14;;;;;;;19.65;18.25;;;23.90;27.50;;;;;;5033971;28;20725;-64
2021/04/16 01:18:47;;;;;;;19.88;18.48;;;23.90;27.80;;;;;;5033958;28;20383;-64
2021/04/16 01:21:16;;;;;;;18.48;17.17;;;23.90;27.80;;;;;;5033268;28;20405;-63
2021/04/16 01:23:57;;;;;;;18.42;17.13;;;23.90;27.80;;;;;;5033698;28;20390;-64
2021/04/16 01:26:26;;;;;;;17.50;16.20;;;23.90;27.90;;;;;;5033763;28;20395;-64
2021/04/16 01:28:54;;;;;;;17.20;15.95;;;23.80;28.10;;;;;;5033688;28;20390;-64
2021/04/16 01:31:22;;;;;;;16.75;15.55;;;23.80;27.80;;;;;;5032034;28;20391;-62
2021/04/16 01:33:49;;;;;;;16.33;15.13;;;23.70;27.80;;;;;;5033427;28;20402;-64
2021/04/16 01:36:20;;;;;;;14.90;13.90;;;23.70;27.80;;;;;;5033728;28;20411;-64
2021/04/16 01:38:46;;;;;;;15.07;13.97;;;23.70;27.80;;;;;;5033451;28;20394;-64
2021/04/16 01:41:13;;;;;;;15.13;14.02;;;23.70;27.90;;;;;;5031884;28;20391;-59
2021/04/16 01:43:41;;;;;;;14.27;13.27;;;23.70;27.90;;;;;;5033531;28;20465;-64
2021/04/16 01:46:14;;;;;;;13.90;12.90;;;23.60;27.80;;;;;;5033281;28;20442;-64
2021/04/16 01:48:48;;;;;;;13.38;12.38;;;23.60;27.80;;;;;;5033471;28;20391;-64
2021/04/16 01:51:34;;;;;;;13.00;12.00;;;23.50;27.90;;;;;;5032847;28;20438;-64
2021/04/16 01:54:12;;;;;;;13.43;12.43;;;23.50;28.00;;;;;;5033379;28;20379;-64
2021/04/16 01:56:40;;;;;;;13.60;12.40;;;23.50;27.90;;;;;;5033078;28;20399;-63
2021/04/16 01:59:14;;;;;;;12.60;11.60;;;23.50;27.90;;;;;;5033034;28;20407;-64
2021/04/16 02:01:43;;;;;;;12.80;11.75;;;23.40;28.00;;;;;;5033244;28;20391;-60
2021/04/16 02:04:09;;;;;;;11.75;10.85;;;23.40;28.00;;;;;;5033037;28;20884;-63
2021/04/16 02:06:35;;;;;;;11.45;10.55;;;23.40;28.00;;;;;;5033080;28;20407;-63
2021/04/16 02:09:07;;;;;;;12.00;11.00;;;23.40;28.00;;;;;;5032917;28;20386;-63
2021/04/16 02:11:33;;;;;;;11.70;10.70;;;23.30;28.00;;;;;;5032437;28;20842;-63
2021/04/16 02:13:58;;;;;;;11.20;10.30;;;23.30;28.00;;;;;;5031608;28;20741;-63
2021/04/16 02:16:24;;;;;;;10.87;9.97;;;23.30;28.00;;;;;;5032852;28;20529;-63
2021/04/16 02:18:52;;;;;;;10.10;9.30;;;23.30;28.10;;;;;;5032748;28;20413;-60
2021/04/16 02:21:18;;;;;;;10.20;9.30;;;23.20;28.00;;;;;;5032115;28;20758;-63
2021/04/16 02:23:43;;;;;;;9.57;8.77;;;23.20;28.00;;;;;;5032761;28;20383;-63
2021/04/16 02:26:09;;;;;;;9.63;8.82;;;23.20;28.20;;;;;;5032364;28;20403;-64
2021/04/16 02:28:35;;;;;;;9.20;8.50;;;23.10;28.00;;;;;;5031994;28;20433;-64
2021/04/16 02:31:00;;;;;;;8.80;8.10;;;23.10;28.00;;;;;;5032261;28;20395;-63
2021/04/16 02:33:26;;;;;;;8.60;7.90;;;23.10;28.10;;;;;;5031862;28;20394;-64
2021/04/16 02:35:51;;;;;;;8.68;7.88;;;23.10;28.10;;;;;;5032306;28;20395;-65
2021/04/16 02:38:17;;;;;;;8.40;7.70;;;23.00;28.10;;;;;;5032247;28;20399;-63
2021/04/16 02:40:43;;;;;;;8.40;7.70;;;23.00;28.20;;;;;;5030683;28;20513;-64
2021/04/16 02:43:09;;;;;;;8.43;7.73;;;23.00;28.20;;;;;;5031966;28;20478;-64
2021/04/16 02:45:34;;;;;;;7.93;7.22;;;22.90;28.10;;;;;;5031630;28;20415;-64
2021/04/16 02:48:00;;;;;;;7.78;7.18;;;22.90;28.10;;;;;;5032109;28;20474;-64
2021/04/16 02:50:29;;;;;;;7.80;7.20;;;22.90;28.00;;;;;;5032192;28;20751;-63
2021/04/16 02:52:55;;;;;;;7.60;7.00;;;22.80;28.10;;;;;;5032003;28;20390;-63
2021/04/16 02:55:21;;;;;;;6.93;6.35;;;22.90;28.20;;;;;;5031646;28;20392;-64
2021/04/16 02:57:48;;;;;;;7.00;6.40;;;22.80;28.20;;;;;;5031242;28;20473;-64
2021/04/16 03:00:20;;;;;;;6.70;6.17;;;22.80;28.10;;;;;;5031908;28;20419;-65
2021/04/16 03:02:46;;;;;;;6.50;6.00;;;22.80;28.20;;;;;;5032081;28;20387;-64
2021/04/16 03:05:12;;;;;;;6.30;5.80;;;22.70;28.20;;;;;;5031693;28;20392;-61
2021/04/16 03:07:38;;;;;;;6.28;5.75;;;22.70;28.20;;;;;;5031667;28;20391;-64
2021/04/16 03:10:06;;;;;;;6.10;5.60;;;22.70;28.00;;;;;;5031869;28;20387;-63
2021/04/16 03:12:31;;;;;;;6.20;5.60;;;22.60;28.20;;;;;;5031954;28;20418;-64
2021/04/16 03:14:57;;;;;;;5.63;5.13;;;22.70;28.50;;;;;;5031917;28;20790;-64
2021/04/16 03:17:23;;;;;;;5.82;5.32;;;22.60;28.40;;;;;;5030016;28;20883;-64
2021/04/16 03:19:49;;;;;;;6.25;5.65;;;22.60;28.80;;;;;;5030426;28;20419;-63
2021/04/16 03:22:15;;;;;;;6.30;5.60;;;22.60;29.10;;;;;;5032044;28;20390;-63
2021/04/16 03:24:40;;;;;;;6.13;5.55;;;22.60;29.20;;;;;;5031715;28;20395;-64
2021/04/16 03:27:07;;;;;;;5.70;5.20;;;22.60;29.00;;;;;;5031407;28;20482;-64
2021/04/16 03:29:32;;;;;;;6.10;5.50;;;22.60;29.00;;;;;;5030840;28;21183;-63
2021/04/16 03:31:58;;;;;;;5.60;5.10;;;22.50;29.20;;;;;;5031458;28;20391;-62
2021/04/16 03:34:24;;;;;;;5.25;4.82;;;22.50;28.90;;;;;;5029853;28;20387;-60
2021/04/16 03:36:50;;;;;;;5.10;4.63;;;22.50;29.00;;;;;;5030854;28;20450;-63
2021/04/16 03:39:15;;;;;;;4.78;4.38;;;22.50;29.20;;;;;;5031102;28;20824;-62
2021/04/16 03:41:41;;;;;;;4.70;4.30;;;22.50;29.30;;;;;;5031228;28;20396;-64
2021/04/16 03:44:07;;;;;;;4.63;4.17;;;22.50;29.00;;;;;;5031385;28;20391;-64
2021/04/16 03:46:33;;;;;;;5.35;4.00;;;22.50;29.80;;;;;;5031195;28;20411;-63
2021/04/16 03:48:58;;;;;;;4.43;3.70;;;22.50;29.80;;;;;;5030041;28;20930;-63
2021/04/16 03:51:24;;;;;;;4.25;3.85;;;22.40;30.00;;;;;;5030808;28;20927;-61
2021/04/16 03:53:50;;;;;;;5.00;3.85;;;22.40;29.70;;;;;;5032837;28;20935;-63
2021/04/16 03:56:16;;;;;;;4.00;3.60;;;22.40;30.00;;;;;;5035181;28;20403;-63
2021/04/16 03:58:44;;;;;;;4.65;3.80;;;22.40;30.30;;;;;;5035358;28;20467;-64
2021/04/16 04:01:10;;;;;;;4.18;3.53;;;22.40;29.90;;;;;;5035101;28;20465;-64
2021/04/16 04:03:35;;;;;;;3.78;3.38;;;22.30;29.90;;;;;;5034809;28;20429;-63
2021/04/16 04:06:02;;;;;;;4.70;3.33;;;22.30;29.90;;;;;;5035020;28;20399;-63
2021/04/16 04:08:28;;;;;;;3.60;3.30;;;22.30;29.40;;;;;;5033822;28;20387;-64
2021/04/16 04:10:53;;;;;;;5.47;3.23;;;22.30;30.20;;;;;;5035422;28;20398;-62
2021/04/16 04:13:19;;;;;;;5.18;3.40;;;22.30;30.10;;;;;;5034956;28;20479;-62
2021/04/16 04:15:45;;;;;;;4.00;2.80;;;22.30;30.40;;;;;;5034768;28;20533;-63
2021/04/16 04:18:10;;;;;;;4.60;3.22;;;22.30;31.00;;;;;;5034895;28;20478;-63
2021/04/16 04:20:38;;;;;;;4.28;2.75;;;22.30;30.10;;;;;;5034740;28;20775;-63
2021/04/16 04:23:05;;;;;;;3.08;2.78;;;22.20;30.00;;;;;;5034770;28;20846;-62
2021/04/16 04:25:31;;;;;;;3.08;2.78;;;22.20;29.80;;;;;;5033147;28;20485;-63
2021/04/16 04:28:00;;;;;;;3.03;2.72;;;22.20;29.90;;;;;;5034716;28;20386;-62
2021/04/16 04:30:31;;;;;;;3.10;2.63;;;22.20;30.00;;;;;;5034970;28;20501;-63
2021/04/16 04:32:57;;;;;;;3.60;2.50;;;22.10;29.70;;;;;;5040913;28;20422;-64
2021/04/16 04:35:24;;;;;;;2.93;2.60;;;22.10;29.80;;;;;;5034347;28;20863;-64
2021/04/16 04:37:50;;;;;;;2.60;2.40;;;22.10;29.80;;;;;;5034549;28;20395;-63
2021/04/16 04:40:17;;;;;;;2.70;2.28;;;22.10;29.80;;;;;;5034492;28;20449;-64
2021/04/16 04:42:43;;;;;;;2.97;2.35;;;22.10;29.90;;;;;;5034736;28;20738;-64
2021/04/16 04:45:09;;;;;;;3.10;2.10;;;22.10;29.90;;;;;;5034171;28;20415;-62
2021/04/16 04:47:35;;;;;;;3.20;2.30;;;22.00;30.00;;;;;;5046981;28;20390;-63
2021/04/16 04:50:01;;;;;;;2.70;2.30;;;22.00;30.00;;;;;;5054511;28;20393;-64
2021/04/16 04:52:36;;;;;;;3.40;2.20;;;22.00;29.80;;;;;;5054343;28;20390;-64
2021/04/16 04:55:07;;;;;;;3.03;2.00;;;22.00;29.70;;;;;;5054496;28;20428;-64
2021/04/16 04:57:33;;;;;;;3.65;2.20;;;22.00;29.90;;;;;;5053791;28;20484;-65
2021/04/16 04:59:58;;;;;;;4.13;2.20;;;21.90;29.60;;;;;;5053870;28;20497;-64
2021/04/16 05:02:24;;;;;;;4.10;2.10;;;21.90;29.70;;;;;;5052843;28;20400;-63
2021/04/16 05:04:51;;;;;;;5.80;2.35;;;21.80;29.90;;;;;;5049778;28;20393;-62
2021/04/16 05:07:17;;;;;;;2.72;2.20;;;21.70;29.80;;;;;;5050258;28;20382;-62
2021/04/16 05:09:42;;;;;;;6.40;2.30;;;21.70;29.80;;;;;;5052141;28;20408;-62
2021/04/16 05:12:09;;;;;;;3.73;1.93;;;21.70;29.90;;;;;;5053173;28;20386;-64
2021/04/16 05:14:35;;;;;;;5.65;2.78;;;21.60;29.70;;;;;;5053607;28;20397;-60
2021/04/16 05:17:00;;;;;;;3.00;2.25;;;21.60;29.90;;;;;;5053555;28;20768;-62
2021/04/16 05:19:26;;;;;;;5.03;2.20;;;21.70;30.00;;;;;;5053126;28;20405;-63
2021/04/16 05:21:55;;;;;;;4.18;2.08;;;21.70;30.20;;;;;;5053682;28;20492;-62
2021/04/16 05:24:21;;;;;;;3.72;2.20;;;21.70;30.00;;;;;;5053719;28;20984;-63
2021/04/16 05:26:47;;;;;;;2.40;2.20;;;21.70;30.00;;;;;;5053873;28;20464;-63
2021/04/16 05:29:12;;;;;;;5.15;2.20;;;21.70;30.00;;;;;;5053452;28;20904;-63
2021/04/16 05:31:38;;;;;;;5.77;2.30;;;21.70;30.00;;;;;;5053117;28;20478;-64
2021/04/16 05:34:04;;;;;;;5.28;2.15;;;21.60;30.00;;;;;;5053397;28;20421;-64
2021/04/16 05:36:31;;;;;;;5.30;2.40;;;21.60;30.00;;;;;;5053500;28;20381;-63
2021/04/16 05:38:57;;;;;;;4.25;2.30;;;21.60;30.00;;;;;;5053401;28;20391;-63
2021/04/16 05:41:23;;;;;;;4.10;2.20;;;21.60;29.90;;;;;;5053201;28;20481;-58
2021/04/16 05:43:49;;;;;;;5.25;2.28;;;21.60;29.80;;;;;;5053141;28;20413;-63
2021/04/16 05:46:15;;;;;;;3.40;2.40;;;21.60;30.00;;;;;;5053204;28;20417;-62
2021/04/16 05:48:41;;;;;;;3.40;1.90;;;21.60;29.90;;;;;;5053355;28;20377;-63
2021/04/16 05:51:07;;;;;;;2.83;2.20;;;21.60;29.80;;;;;;5053076;28;20381;-63
2021/04/16 05:53:33;;;;;;;3.92;1.92;;;21.60;29.70;;;;;;5053031;28;20397;-58
2021/04/16 05:55:59;;;;;;;3.83;1.92;;;21.50;29.50;;;;;;5053019;28;20385;-59
2021/04/16 05:58:25;;;;;;;3.15;1.90;;;21.50;29.60;;;;;;5051559;28;20505;-59
2021/04/16 06:00:50;;;;;;;2.58;1.80;;;21.50;29.90;;;;;;5051733;28;20512;-59
2021/04/16 06:03:19;;;;;;;3.07;1.80;;;21.50;29.80;;;;;;5052966;28;20897;-58
2021/04/16 06:05:45;;;;;;;2.72;1.90;;;21.60;29.70;;;;;;5052558;28;20400;-59
2021/04/16 06:08:11;;;;;;;2.60;1.70;;;21.60;29.70;;;;;;5052928;28;20381;-59
2021/04/16 06:10:37;;;;;;;2.13;1.87;;;21.50;29.60;;;;;;5052927;28;20496;-58
2021/04/16 06:13:03;;;;;;;4.70;1.80;;;21.50;29.50;;;;;;5052839;28;20385;-58
2021/04/16 06:15:30;;;;;;;2.53;1.80;;;21.50;29.60;;;;;;5050796;28;20477;-60
2021/04/16 06:17:56;;;;;;;3.05;1.40;;;21.50;29.60;;;;;;5052279;28;20476;-58
2021/04/16 06:20:24;;;;;;;2.40;1.70;;;21.50;29.50;;;;;;5052699;28;20417;-58
2021/04/16 06:22:52;;;;;;;2.60;1.55;;;21.50;29.50;;;;;;5052706;28;20385;-58
2021/04/16 06:25:24;;;;;;;2.63;1.50;;;21.50;29.50;;;;;;5052664;28;20412;-58
2021/04/16 06:27:49;;;;;;;3.17;1.67;;;21.50;29.60;;;;;;5052334;28;20894;-58
2021/04/16 06:30:17;;;;;;;3.17;1.50;;;21.50;29.50;;;;;;5052479;28;20395;-59
2021/04/16 06:32:43;;;;;;;2.47;1.50;;;21.50;29.50;;;;;;5052826;28;20459;-59
2021/04/16 06:35:13;;;;;;;2.67;1.50;;;21.50;29.50;;;;;;5052415;28;20429;-59
2021/04/16 06:37:39;;;;;;;2.40;1.42;;;21.50;29.40;;;;;;5052098;28;20377;-60
2021/04/16 06:40:06;;;;;;;2.60;1.53;;;21.50;29.40;;;;;;5052185;28;20444;-59
2021/04/16 06:42:33;;;;;;;5.87;1.60;;;21.50;29.50;;;;;;5052406;28;20386;-59
2021/04/16 06:45:03;;;;;;;2.28;1.63;;;21.50;29.40;;;;;;5052119;28;20410;-60
2021/04/16 06:47:35;;;;;;;2.38;1.50;;;21.50;29.40;;;;;;5051798;28;20745;-58
2021/04/16 06:50:02;;;;;;;2.97;1.38;;;21.50;29.50;;;;;;5052119;28;20864;-59
2021/04/16 06:52:34;;;;;;;1.90;1.30;;;21.50;29.40;;;;;;5052016;28;20455;-59
2021/04/16 06:55:03;;;;;;;2.10;1.35;;;21.50;29.50;;;;;;5052079;28;20473;-59
2021/04/16 06:57:49;;;;;;;1.55;1.30;;;21.50;29.40;;;;;;5051688;28;20448;-61
2021/04/16 07:00:43;;;;;;;2.20;1.33;;;21.50;29.40;;;;;;5051754;28;20409;-60
2021/04/16 07:03:19;;;;;;;2.00;1.20;;;21.50;29.50;;;;;;5051960;28;20452;-59
2021/04/16 07:05:56;;;;;;;1.83;1.20;;;21.50;29.40;;;;;;5051406;28;20434;-59
2021/04/16 07:08:31;;;;;;;2.72;1.27;;;21.50;29.40;;;;;;5051874;28;20381;-59
2021/04/16 07:10:58;;;;;;;3.47;1.50;;;21.50;29.40;;;;;;5051917;28;20484;-58
2021/04/16 07:13:40;;;;;;;1.85;1.23;;;21.50;29.40;;;;;;5051851;28;20468;-61
2021/04/16 07:16:07;;;;;;;1.67;1.10;;;21.60;29.50;;;;;;5051729;28;20385;-59
2021/04/16 07:18:42;;;;;;;1.52;1.10;;;21.60;29.50;;;;;;5051618;28;20385;-63
2021/04/16 07:21:09;;;;;;;1.95;1.35;;;21.60;29.50;;;;;;5051542;28;20420;-60
2021/04/16 07:23:49;;;;;;;2.35;1.30;;;21.60;29.50;;;;;;5051187;28;20401;-63
2021/04/16 07:26:36;;;;;;;3.15;1.85;;;21.50;29.40;;;;;;5051474;28;20413;-59
2021/04/16 07:29:03;;;;;;;3.13;2.20;;;21.50;29.40;;;;;;5051393;28;20417;-60
2021/04/16 07:31:42;;;;;;;4.85;2.70;;;21.40;29.40;;;;;;5051236;28;20382;-59
2021/04/16 07:34:29;;;;;;;7.05;2.97;;;21.40;28.50;;;;;;5051332;28;20924;-63
2021/04/16 07:36:57;;;;;;;3.92;2.30;;;21.30;28.40;;;;;;5051331;28;20380;-64
2021/04/16 07:39:32;;;;;;;5.60;1.90;;;21.30;28.50;;;;;;5042373;28;20401;-63
2021/04/16 07:42:10;;;;;;;5.82;3.72;;;21.30;28.70;;;;;;5049065;28;20404;-62
2021/04/16 07:44:40;;;;;;;5.75;2.78;;;21.40;30.40;;;;;;5041067;28;20395;-61
2021/04/16 07:47:12;;;;;;;3.58;2.28;;;21.40;30.80;;;;;;5030992;28;20414;-64
2021/04/16 07:49:38;;;;;;;4.30;2.07;;;21.40;30.60;;;;;;5030945;28;20391;-63
2021/04/16 07:52:23;;;;;;;3.80;1.80;;;21.40;30.80;;;;;;5031287;28;20736;-63
2021/04/16 07:55:06;;;;;;;4.28;1.75;;;21.40;30.60;;;;;;5031300;28;20414;-64
2021/04/16 07:57:35;;;;;;;5.53;1.88;;;21.50;31.10;;;;;;5031043;28;20389;-63
2021/04/16 08:00:19;;;;;;;7.15;2.30;;;21.50;32.10;;;;;;5030035;28;20399;-63
2021/04/16 08:02:51;;;;;;;29.47;7.07;;;21.50;32.60;;;;;;5029046;28;20433;-63
2021/04/16 08:05:26;;;;;;;12.35;3.40;;;21.50;31.90;;;;;;5029238;28;20463;-62
2021/04/16 08:08:17;;;;;;;10.57;3.25;;;21.50;33.30;;;;;;5029051;28;20391;-63
2021/04/16 08:10:57;;;;;;;6.82;2.83;;;21.60;34.30;;;;;;5029395;28;20383;-63
2021/04/16 08:13:48;;;;;;;9.82;3.05;;;21.70;35.90;;;;;;5029394;28;21086;-63
2021/04/16 08:16:18;;;;;;;9.27;2.65;;;21.70;36.50;;;;;;5028431;28;20399;-64
2021/04/16 08:18:57;;;;;;;5.97;2.28;;;21.70;36.40;;;;;;5029892;28;20751;-63
2021/04/16 08:21:25;;;;;;;6.88;2.60;;;21.70;36.20;;;;;;5031370;28;20501;-63
2021/04/16 08:24:07;;;;;;;8.45;2.55;;;21.70;35.40;;;;;;5030619;28;20415;-63
2021/04/16 08:26:39;;;;;;;7.13;2.40;;;21.70;34.20;;;;;;5030981;28;20403;-64
2021/04/16 08:29:47;;;;;;;8.95;2.58;;;21.70;34.20;;;;;;5029757;28;20514;-63
2021/04/16 08:32:18;;;;;;;5.00;2.10;;;21.70;34.50;;;;;;5027880;28;20422;-62
2021/04/16 08:34:47;;;;;;;5.25;2.05;;;21.70;33.40;;;;;;5030942;28;20471;-63
2021/04/16 08:37:24;;;;;;;4.00;2.03;;;21.70;33.30;;;;;;5030882;28;20879;-64
2021/04/16 08:39:51;;;;;;;3.78;2.00;;;21.70;32.80;;;;;;5031807;28;20428;-63
2021/04/16 08:42:26;;;;;;;5.28;2.45;;;21.70;32.70;;;;;;5034603;28;20472;-63
2021/04/16 08:45:00;;;;;;;6.18;2.20;;;21.70;32.60;;;;;;5034479;28;20391;-64
2021/04/16 08:47:40;;;;;;;4.50;2.00;;;21.70;32.60;;;;;;5034488;28;20391;-63
2021/04/16 08:50:06;;;;;;;5.20;2.30;;;21.70;33.50;;;;;;5034329;28;20394;-64
2021/04/16 08:52:43;;;;;;;7.13;2.10;;;21.70;33.80;;;;;;5034433;28;20383;-63
2021/04/16 08:55:25;;;;;;;7.03;2.55;;;21.80;34.90;;;;;;5033060;28;20430;-63
2021/04/16 08:58:08;;;;;;;5.43;1.80;;;21.80;34.80;;;;;;5034114;28;20387;-64
2021/04/16 09:00:50;;;;;;;4.70;1.88;;;21.80;33.70;;;;;;5033986;28;20431;-64
2021/04/16 09:03:40;;;;;;;5.97;1.90;;;21.80;34.10;;;;;;5034215;28;20392;-64
2021/04/16 09:06:06;;;;;;;4.85;2.10;;;21.80;35.20;;;;;;5034055;28;20391;-63
2021/04/16 09:08:45;;;;;;;5.60;1.90;;;21.80;33.70;;;;;;5034005;28;20398;-64
2021/04/16 09:11:12;;;;;;;3.85;1.83;;;21.80;32.90;;;;;;5034017;28;20394;-64
2021/04/16 09:13:41;;;;;;;3.65;1.65;;;21.80;32.50;;;;;;5033596;28;20928;-63
2021/04/16 09:16:16;;;;;;;3.78;2.10;;;21.90;32.30;;;;;;5033886;28;20399;-63
2021/04/16 09:18:45;;;;;;;6.65;2.30;;;21.90;31.50;;;;;;5033980;28;20390;-64
2021/04/16 09:21:21;;;;;;;6.43;2.38;;;21.80;31.70;;;;;;5033837;28;20429;-64
2021/04/16 09:23:47;;;;;;;5.40;2.28;;;21.80;32.60;;;;;;5033482;28;20936;-64
2021/04/16 09:26:48;;;;;;;4.40;2.35;;;21.70;31.70;;;;;;5033811;28;20397;-64
2021/04/16 09:29:25;;;;;;;4.40;2.10;;;21.70;31.60;;;;;;5033585;28;20406;-63
2021/04/16 09:31:57;;;;;;;5.30;1.85;;;21.80;32.10;;;;;;5032718;28;20383;-64
2021/04/16 09:34:42;;;;;;;6.07;1.83;;;22.00;32.10;;;;;;5033350;28;20383;-65
2021/04/16 09:37:29;;;;;;;7.68;1.90;;;22.00;31.30;;;;;;5029465;28;20407;-64
2021/04/16 09:40:17;;;;;;;5.97;1.90;;;22.00;32.10;;;;;;5033000;28;20425;-63
2021/04/16 09:42:59;;;;;;;7.93;2.03;;;22.10;31.40;;;;;;5032079;28;20743;-62
2021/04/16 09:45:27;;;;;;;7.05;1.98;;;22.30;32.50;;;;;;5033263;28;20421;-59
2021/04/16 09:48:02;;;;;;;6.85;2.38;;;22.30;31.80;;;;;;5032877;28;20879;-59
2021/04/16 09:50:40;;;;;;;6.10;2.30;;;22.40;31.90;;;;;;5032897;28;20454;-59
2021/04/16 09:53:23;;;;;;;4.05;2.42;;;22.50;31.20;;;;;;5032974;28;20474;-59
2021/04/16 09:55:48;;;;;;;6.07;2.63;;;22.60;30.70;;;;;;5032819;28;20795;-59
2021/04/16 09:58:35;;;;;;;4.75;2.33;;;22.60;30.30;;;;;;5033047;28;20471;-59
2021/04/16 10:01:09;;;;;;;4.82;2.60;;;22.60;30.40;;;;;;5032945;28;20467;-61
2021/04/16 10:03:45;;;;;;;5.85;2.40;;;22.60;29.60;;;;;;5032872;28;20387;-59
2021/04/16 10:06:29;;;;;;;4.88;2.40;;;22.70;29.70;;;;;;5032860;28;20397;-61
2021/04/16 10:09:16;;;;;;;6.18;2.40;;;22.60;29.50;;;;;;5032908;28;20390;-63
2021/04/16 10:11:51;;;;;;;7.03;2.35;;;22.50;29.50;;;;;;5032260;28;20391;-59
2021/04/16 10:14:33;;;;;;;3.78;2.10;;;22.40;29.60;;;;;;5031739;28;20391;-59
2021/04/16 10:17:10;;;;;;;5.07;2.10;;;22.40;29.70;;;;;;5031534;28;20396;-64
2021/04/16 10:19:41;;;;;;;4.05;2.40;;;22.30;29.40;;;;;;5032530;28;20419;-59
2021/04/16 10:22:15;;;;;;;2.95;1.98;;;22.20;29.40;;;;;;5031435;28;20434;-60
2021/04/16 10:33:58;;;;;;;5.50;2.30;;;22.00;30.00;;;;;;5032560;28;20479;-59
2021/04/16 10:55:13;;;;;;;3.15;1.92;;;21.90;32.50;;;;;;5032162;28;20393;-63
2021/04/16 12:41:00;;;;;;;2.67;1.30;;;21.80;31.60;;;;;;5034069;28;20415;-58
2021/04/16 12:43:26;;;;;;;1.75;1.10;;;21.80;31.10;;;;;;5038360;28;20395;-58
2021/04/16 12:45:55;;;;;;;1.90;1.02;;;21.70;30.50;;;;;;5041108;28;20403;-64
2021/04/16 12:48:22;;;;;;;1.80;1.10;;;21.60;30.50;;;;;;5033195;28;20394;-64
2021/04/16 12:50:48;;;;;;;2.33;0.95;;;21.60;30.80;;;;;;5034389;28;20418;-62
2021/04/16 12:53:14;;;;;;;2.85;1.10;;;21.70;31.20;;;;;;5036587;28;20389;-62
2021/04/16 12:55:39;;;;;;;4.53;1.00;;;21.70;31.00;;;;;;5043986;28;20412;-62
2021/04/16 12:58:07;;;;;;;2.33;1.00;;;21.80;30.90;;;;;;5042087;28;20941;-59
2021/04/16 13:00:42;;;;;;;1.83;0.80;;;21.90;30.70;;;;;;5042288;28;20924;-60
2021/04/16 13:03:09;;;;;;;2.00;0.90;;;22.00;30.70;;;;;;5041957;28;20852;-59
2021/04/16 13:05:35;;;;;;;2.13;1.05;;;22.10;30.50;;;;;;5042241;28;20436;-60
2021/04/16 13:08:05;;;;;;;3.42;0.98;;;22.10;30.40;;;;;;5033312;28;20379;-63
2021/04/16 13:10:31;;;;;;;2.47;0.90;;;22.10;30.50;;;;;;5033623;28;20449;-63
2021/04/16 13:12:56;;;;;;;2.00;1.00;;;22.10;30.30;;;;;;5034086;28;20470;-62
2021/04/16 13:15:22;;;;;;;3.70;0.93;;;22.10;30.30;;;;;;5034086;28;20482;-60
2021/04/16 13:18:12;;;;;;;2.15;0.90;;;22.10;30.30;;;;;;5033825;28;20411;-63
2021/04/16 13:20:38;;;;;;;1.85;0.88;;;22.20;30.20;;;;;;5033727;28;20767;-63
2021/04/16 13:23:04;;;;;;;2.00;0.80;;;22.20;30.20;;;;;;5033857;28;20414;-64
2021/04/16 13:25:30;;;;;;;2.60;0.90;;;22.20;30.20;;;;;;5033735;28;20422;-65
2021/04/16 13:27:56;;;;;;;1.75;0.90;;;22.20;30.10;;;;;;5033301;28;20426;-63
2021/04/16 13:30:28;;;;;;;2.20;0.90;;;22.20;30.00;;;;;;5033810;28;20391;-64
2021/04/16 13:32:56;;;;;;;1.02;0.70;;;22.30;30.20;;;;;;5033437;28;20925;-62
2021/04/16 13:35:44;;;;;;;1.55;0.80;;;22.30;30.10;;;;;;5033118;28;20402;-64
2021/04/16 13:38:24;;;;;;;1.73;0.70;;;22.30;30.00;;;;;;5033150;28;20407;-64
2021/04/16 13:40:50;;;;;;;1.45;0.70;;;22.30;30.00;;;;;;5033394;28;20415;-61
2021/04/16 13:43:15;;;;;;;2.40;0.73;;;23.00;30.80;;;;;;5033702;28;20465;-64
2021/04/16 13:45:41;;;;;;;2.00;0.77;;;23.30;30.10;;;;;;5033352;28;20502;-63
2021/04/16 13:48:08;;;;;;;4.00;1.30;;;23.40;29.70;;;;;;5032990;28;20419;-64
2021/04/16 13:50:36;;;;;;;3.17;0.80;;;23.50;29.50;;;;;;5033224;28;20867;-63
2021/04/16 13:53:02;;;;;;;2.17;0.77;;;23.50;29.50;;;;;;5033255;28;20386;-65
2021/04/16 13:55:28;;;;;;;1.80;0.70;;;23.60;29.80;;;;;;5033277;28;20390;-65
2021/04/16 13:57:54;;;;;;;2.15;0.70;;;23.70;29.70;;;;;;5032792;28;20395;-63
2021/04/16 14:00:23;;;;;;;2.05;0.70;;;23.80;29.40;;;;;;5032894;28;20767;-65
2021/04/16 14:02:52;;;;;;;3.00;0.90;;;23.80;29.30;;;;;;5031752;28;20425;-59
2021/04/16 14:05:24;;;;;;;3.90;0.88;;;23.80;29.20;;;;;;5032761;28;20485;-59
2021/04/16 14:07:51;;;;;;;2.00;0.80;;;23.80;29.20;;;;;;5032599;28;20423;-64
2021/04/16 14:10:20;;;;;;;3.58;0.93;;;23.90;28.90;;;;;;5032474;28;20409;-64
2021/04/16 14:12:46;;;;;;;3.10;0.73;;;23.90;28.70;;;;;;5033037;28;20383;-63
2021/04/16 14:15:12;;;;;;;2.17;0.70;;;24.00;29.10;;;;;;5032855;28;20391;-64
2021/04/16 14:17:44;;;;;;;2.65;0.80;;;24.10;28.70;;;;;;5032940;28;20474;-65
2021/04/16 14:20:26;;;;;;;1.63;0.90;;;24.10;28.90;;;;;;5032331;28;20407;-64
2021/04/16 14:22:53;;;;;;;2.00;0.70;;;24.10;29.60;;;;;;5032786;28;20395;-63
2021/04/16 14:25:24;;;;;;;1.40;0.80;;;24.10;29.00;;;;;;5032730;28;20465;-65
2021/04/16 14:27:50;;;;;;;2.25;0.70;;;24.20;29.20;;;;;;5032522;28;20391;-65
2021/04/16 14:30:32;;;;;;;2.33;0.70;;;24.20;28.90;;;;;;5032396;28;20410;-64
2021/04/16 14:33:00;;;;;;;1.70;0.80;;;24.20;28.40;;;;;;5032536;28;20398;-64
2021/04/16 14:35:28;;;;;;;2.50;0.77;;;24.10;28.80;;;;;;5031188;28;20430;-64
2021/04/16 14:37:54;;;;;;;1.70;0.70;;;24.20;28.70;;;;;;5031690;28;20491;-64
2021/04/16 14:40:21;;;;;;;2.67;0.82;;;24.20;28.60;;;;;;5032276;28;20771;-65
2021/04/16 14:42:47;;;;;;;2.83;0.70;;;24.10;28.60;;;;;;5032370;28;20545;-64
2021/04/16 14:45:20;;;;;;;2.67;0.90;;;24.10;28.50;;;;;;5032242;28;20791;-65
2021/04/16 14:47:46;;;;;;;2.63;0.90;;;24.10;28.50;;;;;;5032261;28;20394;-65
2021/04/16 14:50:13;;;;;;;3.25;0.82;;;24.20;28.30;;;;;;5031357;28;20403;-64
2021/04/16 14:52:40;;;;;;;2.05;0.80;;;24.20;28.30;;;;;;5031633;28;20387;-64
2021/04/16 14:55:08;;;;;;;1.95;0.90;;;24.20;28.10;;;;;;5032425;28;20741;-64
2021/04/16 14:57:40;;;;;;;1.92;0.88;;;24.20;28.00;;;;;;5032270;28;20441;-64
2021/04/16 15:00:12;;;;;;;2.33;0.80;;;24.20;28.10;;;;;;5031457;28;20415;-64
2021/04/16 15:02:38;;;;;;;1.50;0.70;;;24.30;28.10;;;;;;5032104;28;20482;-63
2021/04/16 15:05:05;;;;;;;1.17;0.60;;;24.30;28.00;;;;;;5031384;28;20470;-64
2021/04/16 15:07:38;;;;;;;1.83;0.70;;;24.30;28.30;;;;;;5038006;28;20947;-64
2021/04/16 15:10:08;;;;;;;2.47;0.73;;;24.30;28.20;;;;;;5042678;28;20399;-63